Time;durP1;ratioP1;P1;durP2;ratioP2;P2;SDS_P1;SDS_P2;PMS_P1;PMS_P2;Temp;Humidity;BMP_temperature;BMP_pressure;BME280_temperature;BME280_humidity;BME280_pressure;Samples;Min_cycle;Max_cycle;Signal;HPM_P1;HPM_P2
2021/12/23 00:00:16;;;;;;;7.65;5.47;;;21.70;70.80;;;;;;7902412;28;20181;-61
2021/12/23 00:04:01;;;;;;;8.95;5.55;;;21.70;70.90;;;;;;7902572;28;20555;-60
2021/12/23 00:07:47;;;;;;;8.63;5.40;;;21.60;70.90;;;;;;7902145;28;20276;-60
2021/12/23 00:11:32;;;;;;;7.60;5.10;;;21.70;70.90;;;;;;7902277;28;20168;-62
2021/12/23 00:23:27;;;;;;;7.90;5.30;;;21.70;70.50;;;;;;7902293;28;20572;-62
2021/12/23 00:27:14;;;;;;;8.20;5.63;;;21.70;70.50;;;;;;7901944;28;20624;-61
2021/12/23 00:31:00;;;;;;;7.18;5.40;;;21.70;70.30;;;;;;7901512;28;20204;-60
2021/12/23 00:34:46;;;;;;;8.55;5.75;;;21.70;70.30;;;;;;7901630;28;20223;-60
2021/12/23 00:38:36;;;;;;;7.80;5.60;;;21.60;71.20;;;;;;7901428;28;20184;-62
2021/12/23 00:42:22;;;;;;;7.32;5.22;;;21.60;71.00;;;;;;7901466;28;20631;-61
2021/12/23 00:46:07;;;;;;;7.22;5.57;;;21.60;70.10;;;;;;7901564;28;20208;-62
2021/12/23 00:49:53;;;;;;;7.80;5.60;;;21.60;70.10;;;;;;7901133;28;20226;-61
2021/12/23 00:53:40;;;;;;;9.68;6.32;;;21.60;70.00;;;;;;7900970;28;20192;-61
2021/12/23 00:57:28;;;;;;;7.75;6.07;;;21.60;69.50;;;;;;7901150;28;20192;-62
2021/12/23 01:01:14;;;;;;;11.25;7.03;;;21.60;68.80;;;;;;7901017;28;20664;-61
2021/12/23 01:05:00;;;;;;;9.32;6.75;;;21.50;68.40;;;;;;7901112;28;20578;-62
2021/12/23 01:08:45;;;;;;;10.40;7.50;;;21.50;66.90;;;;;;7900671;28;20239;-62
2021/12/23 01:12:42;;;;;;;10.30;7.78;;;21.50;66.40;;;;;;7901186;28;20200;-61
2021/12/23 01:17:00;;;;;;;10.27;7.13;;;21.50;66.00;;;;;;7900947;28;20188;-62
2021/12/23 01:20:52;;;;;;;11.55;7.45;;;21.50;65.50;;;;;;7900381;28;20274;-61
2021/12/23 01:24:39;;;;;;;10.77;7.38;;;21.40;65.10;;;;;;7900536;28;20275;-62
2021/12/23 01:28:26;;;;;;;12.15;8.18;;;21.40;65.00;;;;;;7900263;28;20745;-61
2021/12/23 01:32:11;;;;;;;10.43;8.05;;;21.40;65.00;;;;;;7900170;28;20670;-60
2021/12/23 01:35:56;;;;;;;10.75;8.40;;;21.30;64.80;;;;;;7900914;28;20547;-62
2021/12/23 01:39:42;;;;;;;12.20;7.97;;;21.40;64.70;;;;;;7900187;28;20169;-62
2021/12/23 01:43:27;;;;;;;11.85;8.23;;;21.30;64.60;;;;;;7899986;28;20201;-62
2021/12/23 01:47:13;;;;;;;10.10;8.00;;;21.30;64.50;;;;;;7900145;28;20688;-62
2021/12/23 01:50:59;;;;;;;12.07;8.32;;;21.30;64.50;;;;;;7900131;28;20180;-61
2021/12/23 01:54:44;;;;;;;11.18;7.80;;;21.30;64.50;;;;;;7900184;28;20670;-61
2021/12/23 01:58:30;;;;;;;10.38;7.90;;;21.30;64.50;;;;;;7899921;28;20173;-62
2021/12/23 02:02:16;;;;;;;11.15;7.57;;;21.20;64.30;;;;;;7899893;28;20208;-61
2021/12/23 02:06:01;;;;;;;11.50;8.35;;;21.20;64.20;;;;;;7905872;28;20546;-61
2021/12/23 02:09:47;;;;;;;12.00;7.97;;;21.20;64.20;;;;;;7905903;28;20537;-62
2021/12/23 02:13:33;;;;;;;12.57;8.02;;;21.20;64.10;;;;;;7905978;28;20197;-61
2021/12/23 02:17:19;;;;;;;10.20;7.78;;;21.20;64.10;;;;;;7905880;28;20310;-61
2021/12/23 02:21:05;;;;;;;13.10;8.68;;;21.20;64.00;;;;;;7905682;28;20181;-61
2021/12/23 02:24:51;;;;;;;12.95;8.95;;;21.20;64.00;;;;;;7905584;28;20585;-62
2021/12/23 02:28:37;;;;;;;13.25;9.15;;;21.20;63.90;;;;;;7905399;28;20227;-61
2021/12/23 02:32:22;;;;;;;13.32;8.90;;;21.20;63.90;;;;;;7905603;28;20204;-61
2021/12/23 02:36:11;;;;;;;11.48;8.65;;;21.20;63.80;;;;;;7905617;28;20192;-62
2021/12/23 02:39:56;;;;;;;11.98;9.25;;;21.20;63.70;;;;;;7905202;28;20202;-61
2021/12/23 02:43:42;;;;;;;12.88;8.75;;;21.20;63.70;;;;;;7905138;28;20193;-62
2021/12/23 02:47:27;;;;;;;10.73;8.48;;;21.10;63.70;;;;;;7904959;28;20243;-61
2021/12/23 02:51:14;;;;;;;12.70;8.70;;;21.20;63.60;;;;;;7904966;28;20208;-61
2021/12/23 02:55:00;;;;;;;11.80;8.10;;;21.20;63.50;;;;;;7904816;28;20866;-62
2021/12/23 02:58:46;;;;;;;11.32;8.00;;;21.10;63.40;;;;;;7904569;28;20647;-61
2021/12/23 03:02:31;;;;;;;12.30;8.70;;;21.10;63.30;;;;;;7904821;28;20204;-62
2021/12/23 03:06:18;;;;;;;13.75;8.60;;;21.10;63.20;;;;;;7904381;28;20204;-62
2021/12/23 03:10:06;;;;;;;11.90;8.77;;;21.10;63.20;;;;;;7904307;28;20165;-62
2021/12/23 03:13:52;;;;;;;13.07;9.15;;;21.10;63.20;;;;;;7904043;28;20188;-61
2021/12/23 03:17:37;;;;;;;12.00;8.85;;;21.10;63.10;;;;;;7903988;28;20314;-62
2021/12/23 03:21:23;;;;;;;12.93;9.18;;;21.10;62.80;;;;;;7904050;28;20181;-62
2021/12/23 03:25:08;;;;;;;12.15;8.88;;;21.00;62.70;;;;;;7903767;28;20197;-62
2021/12/23 03:28:54;;;;;;;12.77;9.40;;;21.00;62.70;;;;;;7903493;28;20196;-62
2021/12/23 03:32:39;;;;;;;14.20;9.55;;;21.00;62.50;;;;;;7903507;28;20200;-62
2021/12/23 03:36:25;;;;;;;12.35;8.85;;;21.00;62.70;;;;;;7903548;28;20184;-61
2021/12/23 03:40:11;;;;;;;13.48;9.25;;;21.00;62.70;;;;;;7903157;28;20185;-62
2021/12/23 03:43:56;;;;;;;13.18;9.38;;;21.00;62.70;;;;;;7903294;28;20236;-63
2021/12/23 03:47:42;;;;;;;13.75;9.63;;;21.00;62.80;;;;;;7903043;28;20770;-63
2021/12/23 03:51:28;;;;;;;11.73;9.15;;;20.90;62.80;;;;;;7903233;28;20181;-62
2021/12/23 03:55:15;;;;;;;12.73;9.43;;;20.90;62.90;;;;;;7903090;28;20331;-61
2021/12/23 03:59:00;;;;;;;13.95;9.38;;;21.00;63.00;;;;;;7902854;28;20256;-62
2021/12/23 04:02:47;;;;;;;12.85;9.60;;;20.90;62.70;;;;;;7902665;28;20204;-62
2021/12/23 04:06:32;;;;;;;13.68;9.88;;;20.90;62.70;;;;;;7902581;28;20282;-62
2021/12/23 04:10:21;;;;;;;14.50;9.88;;;20.90;62.60;;;;;;7902498;28;20181;-62
2021/12/23 04:14:07;;;;;;;12.75;9.70;;;20.90;62.50;;;;;;7902581;28;20200;-62
2021/12/23 04:17:52;;;;;;;14.15;10.20;;;20.90;62.50;;;;;;7902093;28;20192;-63
2021/12/23 04:21:39;;;;;;;17.15;9.90;;;20.90;62.50;;;;;;7902154;28;20262;-61
2021/12/23 04:25:27;;;;;;;15.02;10.45;;;20.90;62.50;;;;;;7901589;28;20169;-62
2021/12/23 04:29:12;;;;;;;16.35;10.15;;;20.90;62.40;;;;;;7901885;28;20217;-64
2021/12/23 04:32:58;;;;;;;16.13;9.90;;;20.90;62.60;;;;;;7901735;28;20235;-62
2021/12/23 04:36:43;;;;;;;13.75;9.73;;;21.00;62.50;;;;;;7901810;28;20173;-61
2021/12/23 04:40:34;;;;;;;14.57;9.82;;;21.00;62.50;;;;;;7901458;28;20196;-63
2021/12/23 04:44:20;;;;;;;14.55;10.30;;;20.90;62.50;;;;;;7901683;28;20257;-62
2021/12/23 04:48:05;;;;;;;13.35;9.02;;;21.00;62.70;;;;;;7901332;28;20200;-61
2021/12/23 04:51:51;;;;;;;14.52;9.95;;;21.00;62.70;;;;;;7901383;28;20556;-61
2021/12/23 04:55:36;;;;;;;15.95;9.80;;;21.00;62.70;;;;;;7901360;28;20625;-61
2021/12/23 04:59:22;;;;;;;13.82;9.93;;;21.00;62.90;;;;;;7901136;28;20534;-62
2021/12/23 05:03:07;;;;;;;13.00;9.60;;;21.00;62.80;;;;;;7901205;28;20196;-63
2021/12/23 05:06:53;;;;;;;12.30;9.13;;;21.00;62.80;;;;;;7901520;28;20204;-63
2021/12/23 05:10:38;;;;;;;13.30;9.15;;;21.00;63.00;;;;;;7900914;28;20181;-62
2021/12/23 05:14:24;;;;;;;11.57;9.23;;;21.00;63.10;;;;;;7900877;28;20192;-63
2021/12/23 05:18:09;;;;;;;14.75;10.07;;;21.00;63.00;;;;;;7900690;28;20652;-61
2021/12/23 05:21:55;;;;;;;12.68;9.27;;;20.90;62.80;;;;;;7900846;28;20749;-62
2021/12/23 05:25:40;;;;;;;14.10;9.52;;;21.00;62.90;;;;;;7900778;28;20165;-62
2021/12/23 05:29:26;;;;;;;13.27;8.98;;;21.00;63.00;;;;;;7900371;28;20212;-62
2021/12/23 05:33:12;;;;;;;12.73;9.15;;;20.90;62.90;;;;;;7900459;28;20349;-62
2021/12/23 05:36:58;;;;;;;14.57;10.30;;;20.90;63.00;;;;;;7861231;28;20537;-61
2021/12/23 05:40:44;;;;;;;12.35;9.15;;;20.90;63.00;;;;;;7896694;28;20195;-61
2021/12/23 05:44:30;;;;;;;12.48;9.30;;;21.00;63.00;;;;;;7875476;28;20702;-62
2021/12/23 05:48:16;;;;;;;14.00;8.48;;;20.90;63.20;;;;;;7875467;28;20209;-61
2021/12/23 05:52:01;;;;;;;16.25;9.43;;;20.90;63.00;;;;;;7875190;28;20685;-62
2021/12/23 05:55:47;;;;;;;15.73;9.43;;;20.90;62.90;;;;;;7871287;28;20255;-61
2021/12/23 05:59:33;;;;;;;19.75;10.50;;;20.90;62.70;;;;;;7872503;28;20269;-60
2021/12/23 06:03:19;;;;;;;15.88;9.45;;;21.00;62.40;;;;;;7873756;28;20232;-61
2021/12/23 06:07:05;;;;;;;20.67;10.23;;;21.00;62.80;;;;;;7873941;28;20205;-61
2021/12/23 06:10:50;;;;;;;21.30;10.18;;;20.90;63.00;;;;;;7874249;28;20646;-61
2021/12/23 06:14:36;;;;;;;25.50;11.70;;;20.90;62.80;;;;;;7874464;28;20189;-61
2021/12/23 06:18:21;;;;;;;21.80;12.35;;;20.90;60.60;;;;;;7874166;28;20188;-61
2021/12/23 06:22:07;;;;;;;17.48;10.35;;;20.80;60.80;;;;;;7874021;28;20193;-61
2021/12/23 06:25:53;;;;;;;15.15;10.80;;;20.90;61.90;;;;;;7873434;28;20630;-61
2021/12/23 06:29:39;;;;;;;21.08;10.85;;;20.90;61.70;;;;;;7873742;28;20208;-61
2021/12/23 06:33:25;;;;;;;18.45;11.05;;;20.90;61.80;;;;;;7873649;28;20201;-60
2021/12/23 06:37:10;;;;;;;18.77;11.93;;;20.90;61.80;;;;;;7873810;28;20184;-61
2021/12/23 06:40:56;;;;;;;21.60;10.85;;;20.90;61.90;;;;;;7873585;28;20647;-60
2021/12/23 06:44:41;;;;;;;16.45;10.93;;;20.80;61.80;;;;;;7873499;28;20694;-61
2021/12/23 06:48:26;;;;;;;16.75;10.60;;;20.90;61.80;;;;;;7872751;28;20209;-61
2021/12/23 06:52:12;;;;;;;17.60;11.63;;;20.80;61.80;;;;;;7873489;28;20220;-62
2021/12/23 06:56:00;;;;;;;15.85;10.90;;;20.90;61.70;;;;;;7873790;28;20231;-61
2021/12/23 06:59:46;;;;;;;15.25;11.57;;;20.90;61.80;;;;;;7873499;28;20177;-60
2021/12/23 07:03:52;;;;;;;17.33;11.23;;;20.90;61.70;;;;;;7873583;28;20201;-61
2021/12/23 07:07:57;;;;;;;16.73;11.23;;;20.90;61.70;;;;;;7872653;28;20208;-61
2021/12/23 07:11:43;;;;;;;16.95;11.35;;;20.90;61.70;;;;;;7872603;28;20183;-61
2021/12/23 07:15:29;;;;;;;16.65;10.63;;;20.90;61.80;;;;;;7872802;28;20173;-60
2021/12/23 07:19:15;;;;;;;16.45;10.68;;;20.90;61.80;;;;;;7872787;28;20173;-61
2021/12/23 07:23:01;;;;;;;19.23;10.55;;;21.00;61.80;;;;;;7872276;28;20254;-61
2021/12/23 07:26:47;;;;;;;16.40;10.70;;;20.90;61.60;;;;;;7872358;28;20284;-61
2021/12/23 07:30:32;;;;;;;15.00;11.20;;;20.90;61.80;;;;;;7872362;28;20169;-61
2021/12/23 07:34:18;;;;;;;15.30;9.73;;;21.00;62.10;;;;;;7872017;28;20299;-60
2021/12/23 07:38:03;;;;;;;16.63;10.77;;;21.00;62.00;;;;;;7871609;28;20380;-62
2021/12/23 07:41:50;;;;;;;16.85;11.00;;;21.00;61.80;;;;;;7871978;28;20280;-61
2021/12/23 07:45:38;;;;;;;16.60;10.77;;;21.00;61.80;;;;;;7872064;28;20197;-60
2021/12/23 07:49:24;;;;;;;16.52;11.00;;;21.00;61.60;;;;;;7871358;28;20275;-63
2021/12/23 07:53:09;;;;;;;17.73;10.95;;;21.00;61.50;;;;;;7872033;28;20201;-63
2021/12/23 07:56:56;;;;;;;16.08;11.30;;;21.00;61.50;;;;;;7871629;28;20174;-63
2021/12/23 08:00:42;;;;;;;17.23;11.05;;;21.10;61.50;;;;;;7870696;28;20189;-63
2021/12/23 08:04:27;;;;;;;15.27;9.82;;;21.00;61.40;;;;;;7871378;28;20283;-63
2021/12/23 08:08:13;;;;;;;14.13;9.98;;;21.00;61.40;;;;;;7870845;28;20212;-63
2021/12/23 08:12:05;;;;;;;15.48;10.15;;;21.10;61.40;;;;;;7870780;28;20201;-62
2021/12/23 08:15:51;;;;;;;16.77;10.25;;;21.10;61.60;;;;;;7870567;28;20586;-63
2021/12/23 08:19:36;;;;;;;17.00;10.73;;;21.10;61.40;;;;;;7870622;28;20173;-64
2021/12/23 08:23:22;;;;;;;15.02;10.85;;;21.10;61.40;;;;;;7870547;28;20631;-63
2021/12/23 08:27:08;;;;;;;14.05;10.32;;;21.10;61.40;;;;;;7870269;28;20242;-63
2021/12/23 08:30:54;;;;;;;17.10;10.52;;;21.10;61.50;;;;;;7870434;28;20227;-63
2021/12/23 08:34:39;;;;;;;14.77;10.38;;;21.10;61.50;;;;;;7870244;28;20700;-63
2021/12/23 08:38:26;;;;;;;14.73;9.88;;;21.10;61.50;;;;;;7870107;28;20260;-63
2021/12/23 08:42:11;;;;;;;13.73;10.65;;;21.10;61.40;;;;;;7852431;28;20204;-63
2021/12/23 08:45:57;;;;;;;13.43;9.82;;;21.10;61.40;;;;;;7870067;28;20256;-64
2021/12/23 08:49:44;;;;;;;12.88;9.90;;;21.10;61.50;;;;;;7869813;28;20670;-63
2021/12/23 08:53:30;;;;;;;16.65;10.52;;;21.10;61.40;;;;;;7869606;28;20189;-63
2021/12/23 08:57:16;;;;;;;14.98;9.85;;;21.10;61.30;;;;;;7870554;28;20261;-63
2021/12/23 09:01:03;;;;;;;14.98;10.75;;;21.10;61.40;;;;;;7869889;28;20181;-63
2021/12/23 09:04:49;;;;;;;20.08;11.95;;;21.20;61.40;;;;;;7869370;28;20193;-63
2021/12/23 09:08:34;;;;;;;23.83;11.25;;;21.10;61.10;;;;;;7869227;28;20292;-63
2021/12/23 09:12:20;;;;;;;30.98;12.13;;;20.90;59.40;;;;;;7869137;28;20682;-63
2021/12/23 09:16:06;;;;;;;21.92;10.75;;;20.90;60.20;;;;;;7869559;28;20226;-62
2021/12/23 09:19:51;;;;;;;20.95;11.52;;;20.80;60.70;;;;;;7869211;28;20186;-62
2021/12/23 09:23:36;;;;;;;21.95;10.38;;;20.90;61.20;;;;;;7869264;28;20684;-63
2021/12/23 09:27:32;;;;;;;13.05;9.43;;;20.90;61.30;;;;;;7869068;28;20761;-63
2021/12/23 09:35:24;;;;;;;11.38;8.93;;;21.00;61.70;;;;;;7869616;28;20432;-62
2021/12/23 09:39:11;;;;;;;14.43;9.85;;;21.00;61.80;;;;;;7869511;28;20227;-62
2021/12/23 09:43:02;;;;;;;16.63;9.80;;;21.00;61.80;;;;;;7868754;28;20197;-63
2021/12/23 09:46:48;;;;;;;13.43;9.77;;;21.00;61.80;;;;;;7869219;28;20266;-62
2021/12/23 09:50:40;;;;;;;14.13;9.48;;;21.00;61.80;;;;;;7868825;28;20174;-62
2021/12/23 09:54:26;;;;;;;17.27;9.80;;;21.10;61.90;;;;;;7868695;28;20189;-64
2021/12/23 09:58:11;;;;;;;14.55;9.38;;;21.00;61.70;;;;;;7868639;28;20222;-63
2021/12/23 10:01:57;;;;;;;14.98;9.55;;;21.10;61.70;;;;;;7868655;28;20215;-63
2021/12/23 10:05:43;;;;;;;15.00;9.30;;;21.10;61.70;;;;;;7868582;28;20208;-62
2021/12/23 10:09:46;;;;;;;18.25;10.02;;;21.10;61.80;;;;;;7868608;28;20754;-62
2021/12/23 10:27:01;;;;;;;14.88;9.90;;;21.10;61.80;;;;;;7868616;28;20224;-62
2021/12/23 10:30:26;;;;;;;16.88;9.85;;;21.10;61.60;;;;;;7872476;28;20185;-63
2021/12/23 10:38:25;;;;;;;13.57;9.10;;;21.10;61.40;;;;;;7873206;28;20567;-63
2021/12/23 10:42:17;;;;;;;15.85;10.10;;;21.10;61.70;;;;;;7872987;28;20193;-62
2021/12/23 10:46:10;;;;;;;14.30;9.65;;;21.10;61.50;;;;;;7872604;28;20223;-62
2021/12/23 10:50:12;;;;;;;16.90;9.45;;;21.10;61.60;;;;;;7872766;28;20211;-62
2021/12/23 10:54:22;;;;;;;13.27;9.20;;;21.10;61.70;;;;;;7872517;28;20193;-61
2021/12/23 10:58:12;;;;;;;17.38;9.20;;;21.10;61.70;;;;;;7872365;28;20178;-63
2021/12/23 11:02:33;;;;;;;12.32;9.48;;;21.10;62.70;;;;;;7872590;28;20209;-61
2021/12/23 11:06:30;;;;;;;13.18;9.05;;;21.10;62.00;;;;;;7872509;28;20264;-64
2021/12/23 11:10:37;;;;;;;15.20;9.82;;;21.20;62.00;;;;;;7872465;28;20185;-63
2021/12/23 11:42:58;;;;;;;15.65;8.77;;;21.10;62.70;;;;;;7871557;28;20681;-62
2021/12/23 11:46:46;;;;;;;12.02;8.90;;;21.10;62.80;;;;;;7870554;28;20205;-63
2021/12/23 11:50:41;;;;;;;16.20;9.23;;;21.10;62.80;;;;;;7870809;28;20173;-63
2021/12/23 11:54:31;;;;;;;11.15;8.35;;;21.10;62.80;;;;;;7870384;28;20758;-63
2021/12/23 11:58:23;;;;;;;12.38;8.63;;;21.00;62.70;;;;;;7869940;28;20181;-63
2021/12/23 12:02:18;;;;;;;13.23;9.20;;;21.00;63.00;;;;;;7871220;28;20197;-63
2021/12/23 12:06:17;;;;;;;12.45;9.32;;;21.00;63.00;;;;;;7871377;28;20184;-63
2021/12/23 12:10:05;;;;;;;16.33;9.65;;;21.00;62.80;;;;;;7871129;28;20188;-64
2021/12/23 12:13:50;;;;;;;13.52;9.82;;;21.00;62.70;;;;;;7871298;28;20193;-64
2021/12/23 12:17:37;;;;;;;12.20;9.02;;;21.00;62.60;;;;;;7870920;28;20177;-63
2021/12/23 12:21:31;;;;;;;13.07;9.27;;;21.00;62.70;;;;;;7870860;28;20182;-63
2021/12/23 12:25:25;;;;;;;14.68;10.32;;;21.00;62.60;;;;;;7870562;28;20213;-64
2021/12/23 12:29:11;;;;;;;13.00;9.55;;;21.00;62.70;;;;;;7870430;28;20691;-62
2021/12/23 12:32:57;;;;;;;17.45;9.82;;;21.00;62.70;;;;;;7870440;28;20670;-62
2021/12/23 12:36:45;;;;;;;13.65;9.88;;;21.00;62.70;;;;;;7870446;28;20276;-62
2021/12/23 12:41:05;;;;;;;13.70;9.70;;;21.00;62.90;;;;;;7870285;28;20172;-62
2021/12/23 12:45:01;;;;;;;13.80;9.88;;;21.00;62.70;;;;;;7870201;28;20204;-63
2021/12/23 12:48:58;;;;;;;15.32;9.90;;;21.00;62.90;;;;;;7869026;28;20209;-62
2021/12/23 12:52:49;;;;;;;16.58;9.45;;;20.90;62.70;;;;;;7870312;28;20200;-62
2021/12/23 12:56:42;;;;;;;15.73;9.45;;;20.90;63.20;;;;;;7870217;28;20182;-61
2021/12/23 13:00:33;;;;;;;20.27;9.15;;;20.90;63.40;;;;;;7869965;28;20177;-62
2021/12/23 13:04:28;;;;;;;12.55;8.45;;;21.00;63.70;;;;;;7870045;28;20201;-63
2021/12/23 13:08:21;;;;;;;24.33;9.98;;;20.90;63.70;;;;;;7869820;28;20236;-63
2021/12/23 13:12:07;;;;;;;17.52;9.63;;;20.90;63.60;;;;;;7869438;28;20663;-63
2021/12/23 13:15:58;;;;;;;16.45;10.02;;;20.90;63.40;;;;;;7869364;28;20204;-63
2021/12/23 13:19:43;;;;;;;15.35;9.80;;;20.90;63.40;;;;;;7869455;28;20537;-62
2021/12/23 13:23:40;;;;;;;16.33;10.02;;;21.00;63.40;;;;;;7869188;28;20193;-63
2021/12/23 13:27:27;;;;;;;13.77;10.05;;;20.90;63.40;;;;;;7868838;28;20188;-63
2021/12/23 13:31:26;;;;;;;17.30;10.63;;;20.90;63.20;;;;;;7868968;28;20729;-62
2021/12/23 13:35:14;;;;;;;15.80;10.55;;;20.90;63.20;;;;;;7869126;28;20201;-63
2021/12/23 13:39:19;;;;;;;13.88;10.77;;;21.00;63.40;;;;;;7868799;28;20185;-63
2021/12/23 13:43:05;;;;;;;15.68;10.48;;;21.00;63.30;;;;;;7869404;28;20201;-64
2021/12/23 13:47:04;;;;;;;17.48;11.48;;;21.00;63.20;;;;;;7869071;28;20208;-62
2021/12/23 13:50:52;;;;;;;18.63;12.20;;;21.00;63.00;;;;;;7868695;28;20239;-63
2021/12/23 13:54:40;;;;;;;18.52;11.55;;;21.00;63.00;;;;;;7868936;28;20262;-63
2021/12/23 13:58:26;;;;;;;20.45;12.55;;;21.00;63.10;;;;;;7868432;28;20670;-63
2021/12/23 14:02:15;;;;;;;16.80;12.30;;;21.00;63.20;;;;;;7875033;28;20583;-64
2021/12/23 14:06:01;;;;;;;19.90;12.18;;;21.00;63.20;;;;;;7874629;28;20599;-64
2021/12/23 14:09:50;;;;;;;24.58;12.32;;;21.00;63.30;;;;;;7874635;28;20932;-64
2021/12/23 14:13:35;;;;;;;23.33;12.77;;;21.00;63.30;;;;;;7874560;28;20185;-63
2021/12/23 14:17:30;;;;;;;18.02;12.55;;;21.10;63.20;;;;;;7874595;28;20189;-62
2021/12/23 14:25:25;;;;;;;23.20;14.15;;;21.10;63.10;;;;;;7874675;28;20224;-63
2021/12/23 14:29:17;;;;;;;20.52;13.65;;;21.10;63.10;;;;;;7873801;28;20258;-60
2021/12/23 14:33:08;;;;;;;19.58;13.88;;;21.10;63.30;;;;;;7874216;28;20224;-62
2021/12/23 14:36:58;;;;;;;24.95;13.63;;;21.10;63.40;;;;;;7874049;28;20193;-62
2021/12/23 14:41:06;;;;;;;18.70;12.93;;;21.10;63.30;;;;;;7873635;28;20239;-62
2021/12/23 14:45:05;;;;;;;19.15;13.48;;;21.10;63.40;;;;;;7873892;28;20189;-63
2021/12/23 14:49:26;;;;;;;22.27;14.15;;;21.10;63.50;;;;;;7874426;28;20216;-62
2021/12/23 14:53:01;;;;;;;24.83;13.75;;;21.10;63.30;;;;;;7871636;28;20200;-62
2021/12/23 14:56:50;;;;;;;18.27;12.88;;;21.10;63.70;;;;;;7873491;28;20212;-63
2021/12/23 15:00:39;;;;;;;21.40;13.70;;;21.10;62.80;;;;;;7873013;28;20184;-62
2021/12/23 15:04:25;;;;;;;17.83;12.82;;;21.10;62.40;;;;;;7873263;28;20528;-63
2021/12/23 15:08:29;;;;;;;19.15;12.30;;;21.10;63.00;;;;;;7872898;28;20284;-62
2021/12/23 15:12:18;;;;;;;17.95;13.40;;;21.20;63.50;;;;;;7872332;28;20270;-62
2021/12/23 15:16:13;;;;;;;18.05;13.10;;;21.20;63.60;;;;;;7872452;28;20257;-62
2021/12/23 15:19:59;;;;;;;17.80;12.43;;;21.20;63.70;;;;;;7872501;28;20188;-62
2021/12/23 15:23:48;;;;;;;17.70;12.38;;;21.30;63.70;;;;;;7872501;28;20201;-63
2021/12/23 15:27:38;;;;;;;18.85;13.07;;;21.40;63.50;;;;;;7876743;28;20665;-62
2021/12/23 15:31:23;;;;;;;22.70;12.80;;;21.40;63.50;;;;;;7903876;28;20213;-63
2021/12/23 15:35:17;;;;;;;16.42;12.25;;;21.40;63.30;;;;;;7903581;28;20208;-62
2021/12/23 15:39:17;;;;;;;26.45;12.27;;;21.50;63.30;;;;;;7903390;28;20199;-62
2021/12/23 15:43:07;;;;;;;16.45;11.98;;;21.50;63.20;;;;;;7903413;28;20188;-62
2021/12/23 15:46:56;;;;;;;20.42;13.32;;;21.60;63.20;;;;;;7903290;28;20274;-62
2021/12/23 15:50:42;;;;;;;20.90;12.52;;;21.60;64.10;;;;;;7903157;28;20181;-63
2021/12/23 15:54:27;;;;;;;26.55;13.25;;;21.70;63.10;;;;;;7903065;28;20748;-64
2021/12/23 15:58:13;;;;;;;21.55;13.07;;;21.70;62.80;;;;;;7902778;28;20739;-62
2021/12/23 16:02:01;;;;;;;23.90;13.43;;;21.80;62.50;;;;;;7855023;28;20759;-63
2021/12/23 16:09:32;;;;;;;31.35;12.00;;;22.00;62.40;;;;;;7847280;28;20575;-63
2021/12/23 16:13:18;;;;;;;29.75;13.38;;;22.00;59.50;;;;;;7841785;28;20225;-62
2021/12/23 16:17:04;;;;;;;23.25;12.45;;;22.00;60.80;;;;;;7865181;28;20181;-63
2021/12/23 16:20:49;;;;;;;27.17;13.85;;;22.00;61.20;;;;;;7868549;28;20193;-62
2021/12/23 16:24:37;;;;;;;29.58;13.80;;;22.10;60.80;;;;;;7839090;28;20206;-62
2021/12/23 16:28:25;;;;;;;24.48;13.40;;;22.20;60.40;;;;;;7843228;28;20837;-61
2021/12/23 16:32:11;;;;;;;26.42;13.32;;;22.30;60.00;;;;;;7870252;28;20209;-61
2021/12/23 16:35:56;;;;;;;28.88;14.60;;;22.40;60.20;;;;;;7867160;28;20176;-62
2021/12/23 16:39:42;;;;;;;22.55;13.80;;;22.50;60.40;;;;;;7845528;28;20193;-62
2021/12/23 16:43:29;;;;;;;27.08;14.23;;;22.60;60.10;;;;;;7845366;28;20561;-62
2021/12/23 16:47:15;;;;;;;28.88;14.13;;;22.70;60.00;;;;;;7869899;28;20781;-62
2021/12/23 16:51:01;;;;;;;22.52;14.70;;;22.70;59.90;;;;;;7875037;28;20801;-62
2021/12/23 16:58:33;;;;;;;26.98;13.60;;;22.80;60.50;;;;;;7869571;28;20268;-61
2021/12/23 17:02:19;;;;;;;25.33;12.82;;;22.90;60.80;;;;;;7886273;28;20201;-62
2021/12/23 17:06:04;;;;;;;22.13;12.98;;;23.00;61.10;;;;;;7901028;28;20221;-63
2021/12/23 17:09:52;;;;;;;25.02;12.93;;;23.10;61.20;;;;;;7873772;28;20205;-62
2021/12/23 17:13:37;;;;;;;20.30;13.07;;;23.20;61.10;;;;;;7869709;28;20743;-63
2021/12/23 17:17:23;;;;;;;27.55;13.10;;;23.30;60.70;;;;;;7869599;28;20557;-62
2021/12/23 17:24:58;;;;;;;29.17;13.05;;;23.50;61.60;;;;;;7869574;28;20193;-62
2021/12/23 17:28:43;;;;;;;22.85;13.00;;;23.60;60.60;;;;;;7869043;28;20232;-62
2021/12/23 17:32:29;;;;;;;23.23;12.65;;;23.70;60.20;;;;;;7868960;28;20212;-62
2021/12/23 17:36:14;;;;;;;20.20;12.27;;;23.70;60.00;;;;;;7869155;28;20227;-63
2021/12/23 17:40:00;;;;;;;20.30;12.63;;;23.80;59.80;;;;;;7868865;28;20181;-63
2021/12/23 17:43:46;;;;;;;20.70;12.85;;;23.80;59.50;;;;;;7869047;28;20284;-61
2021/12/23 17:47:32;;;;;;;22.13;12.40;;;23.80;59.70;;;;;;7868600;28;20209;-63
2021/12/23 17:51:18;;;;;;;20.75;11.55;;;23.70;59.90;;;;;;7868843;28;20200;-63
2021/12/23 17:55:04;;;;;;;19.58;11.68;;;23.70;59.90;;;;;;7869005;28;20247;-63
2021/12/23 17:58:50;;;;;;;16.13;11.15;;;23.60;60.60;;;;;;7868563;28;20180;-63
2021/12/23 18:02:36;;;;;;;18.98;10.30;;;23.50;62.00;;;;;;7868692;28;20690;-63
2021/12/23 18:06:22;;;;;;;17.40;10.50;;;23.50;61.40;;;;;;7866253;28;20212;-63
2021/12/23 18:10:08;;;;;;;17.13;11.57;;;23.50;62.50;;;;;;7865601;28;20213;-62
2021/12/23 18:13:53;;;;;;;19.42;12.10;;;23.40;61.00;;;;;;7837769;28;20198;-61
2021/12/23 18:17:39;;;;;;;21.35;11.90;;;23.50;60.80;;;;;;7855909;28;20213;-63
2021/12/23 18:21:25;;;;;;;20.45;13.43;;;23.50;61.10;;;;;;7867499;28;20197;-63
2021/12/23 18:25:11;;;;;;;18.88;13.45;;;23.50;60.50;;;;;;7868542;28;20290;-63
2021/12/23 18:29:00;;;;;;;19.52;12.80;;;23.50;60.50;;;;;;7842419;28;20275;-62
2021/12/23 18:32:48;;;;;;;16.50;12.07;;;23.50;60.70;;;;;;7837182;28;20225;-63
2021/12/23 18:36:38;;;;;;;19.45;11.00;;;23.50;62.20;;;;;;7836076;28;20178;-62
2021/12/23 18:40:26;;;;;;;18.17;10.95;;;23.50;63.70;;;;;;7837382;28;20178;-62
2021/12/23 18:44:12;;;;;;;20.25;10.40;;;23.50;65.10;;;;;;7837412;28;20549;-62
2021/12/23 18:47:58;;;;;;;17.77;10.15;;;23.50;65.70;;;;;;7842039;28;20353;-62
2021/12/23 18:51:44;;;;;;;16.92;10.68;;;23.50;66.00;;;;;;7842748;28;20174;-62
2021/12/23 18:55:30;;;;;;;15.45;9.77;;;23.60;66.20;;;;;;7842424;28;20224;-62
2021/12/23 18:59:15;;;;;;;15.07;9.73;;;23.70;66.40;;;;;;7842413;28;20174;-63
2021/12/23 19:03:09;;;;;;;20.05;10.27;;;23.90;66.60;;;;;;7842186;28;20222;-62
2021/12/23 19:06:56;;;;;;;18.10;9.90;;;24.00;66.70;;;;;;7842120;28;20201;-62
2021/12/23 19:10:42;;;;;;;16.02;9.55;;;24.10;66.70;;;;;;7841714;28;20181;-62
2021/12/23 19:14:27;;;;;;;17.33;9.95;;;24.20;66.20;;;;;;7841810;28;20197;-62
2021/12/23 19:18:13;;;;;;;12.85;7.95;;;24.20;66.40;;;;;;7841670;28;20185;-62
2021/12/23 19:21:59;;;;;;;18.52;9.77;;;24.30;66.30;;;;;;7841510;28;20679;-63
2021/12/23 19:25:44;;;;;;;15.85;8.95;;;24.40;66.10;;;;;;7841596;28;20626;-62
2021/12/23 19:29:30;;;;;;;17.63;9.02;;;24.50;66.00;;;;;;7841352;28;20202;-63
2021/12/23 19:33:15;;;;;;;18.40;8.75;;;24.50;66.10;;;;;;7841065;28;20252;-62
2021/12/23 19:37:01;;;;;;;15.63;9.80;;;24.50;66.10;;;;;;7841291;28;20270;-61
2021/12/23 19:40:47;;;;;;;22.15;8.90;;;24.50;66.30;;;;;;7840909;28;20239;-62
2021/12/23 19:44:33;;;;;;;13.55;9.25;;;24.50;66.50;;;;;;7840896;28;20198;-63
2021/12/23 19:48:19;;;;;;;16.23;8.63;;;24.50;66.30;;;;;;7840624;28;20210;-63
2021/12/23 19:52:04;;;;;;;18.15;8.88;;;24.40;66.20;;;;;;7840750;28;20202;-63
2021/12/23 19:55:50;;;;;;;20.40;8.60;;;24.40;65.40;;;;;;7840396;28;20178;-63
2021/12/23 19:59:35;;;;;;;18.63;8.68;;;24.30;66.30;;;;;;7839740;28;20201;-63
2021/12/23 20:03:21;;;;;;;15.07;9.20;;;24.40;66.40;;;;;;7840355;28;20198;-64
2021/12/23 20:07:06;;;;;;;17.70;9.13;;;24.30;65.80;;;;;;7848764;28;20241;-65
2021/12/23 20:10:52;;;;;;;34.88;10.45;;;24.30;66.40;;;;;;7840036;28;20243;-65
2021/12/23 20:14:38;;;;;;;29.35;9.75;;;24.20;66.50;;;;;;7840696;28;20221;-64
2021/12/23 20:18:23;;;;;;;40.25;9.63;;;24.20;66.70;;;;;;7839762;28;20218;-65
2021/12/23 20:22:09;;;;;;;61.10;10.52;;;24.20;66.80;;;;;;7839843;28;20290;-64
2021/12/23 20:25:54;;;;;;;50.70;10.25;;;24.00;65.90;;;;;;7839770;28;20526;-64
2021/12/23 20:29:40;;;;;;;47.72;10.32;;;23.90;67.40;;;;;;7839368;28;20583;-63
2021/12/23 20:33:26;;;;;;;38.63;10.90;;;23.80;66.90;;;;;;7839253;28;20263;-59
2021/12/23 20:37:14;;;;;;;45.60;11.05;;;23.70;67.50;;;;;;7839490;28;20189;-64